Time;durP1;ratioP1;P1;durP2;ratioP2;P2;SDS_P1;SDS_P2;PMS_P1;PMS_P2;Temp;Humidity;BMP_temperature;BMP_pressure;BME280_temperature;BME280_humidity;BME280_pressure;Samples;Min_cycle;Max_cycle;Signal;HPM_P1;HPM_P2
2022/03/24 00:01:27;;;;;;;32.95;15.23;;;;;;;;;;5000864;28;20108;-74
2022/03/24 00:03:52;;;;;;;32.90;14.70;;;;;;;;;;5009497;28;20046;-74
2022/03/24 00:06:18;;;;;;;32.35;13.23;;;;;;;;;;5011423;28;20045;-75
2022/03/24 00:08:43;;;;;;;28.92;13.50;;;;;;;;;;5000833;28;20052;-75
2022/03/24 00:11:08;;;;;;;25.98;12.60;;;;;;;;;;4994160;28;20034;-74
2022/03/24 00:13:34;;;;;;;30.85;13.57;;;;;;;;;;5009130;28;20168;-74
2022/03/24 00:16:00;;;;;;;32.17;13.77;;;;;;;;;;5005443;28;20034;-74
2022/03/24 00:18:25;;;;;;;31.55;13.32;;;;;;;;;;5007694;28;20117;-74
2022/03/24 00:20:51;;;;;;;27.35;12.88;;;;;;;;;;4995226;28;20129;-75
2022/03/24 00:23:16;;;;;;;34.05;13.75;;;;;;;;;;5004789;28;20127;-74
2022/03/24 00:25:41;;;;;;;28.52;13.13;;;;;;;;;;4990809;28;20065;-74
2022/03/24 00:28:07;;;;;;;29.73;13.50;;;;;;;;;;4999781;28;20079;-74
2022/03/24 00:30:32;;;;;;;33.05;13.88;;;;;;;;;;5010967;28;20037;-74
2022/03/24 00:32:58;;;;;;;29.85;13.82;;;;;;;;;;5001202;28;20057;-74
2022/03/24 00:35:24;;;;;;;32.85;14.07;;;;;;;;;;4996774;28;20046;-75
2022/03/24 00:37:50;;;;;;;34.55;14.77;;;;;;;;;;4993049;28;20034;-74
2022/03/24 00:40:17;;;;;;;35.47;15.35;;;;;;;;;;5008109;28;20481;-75
2022/03/24 00:42:43;;;;;;;34.58;15.32;;;;;;;;;;4990831;28;20535;-74
2022/03/24 00:45:12;;;;;;;35.67;15.05;;;;;;;;;;5010717;28;20033;-74
2022/03/24 00:47:42;;;;;;;32.75;15.50;;;;;;;;;;5000066;28;20106;-74
2022/03/24 00:50:09;;;;;;;33.40;15.38;;;;;;;;;;5009535;28;20040;-74
2022/03/24 00:52:41;;;;;;;35.70;15.93;;;;;;;;;;4991068;28;20385;-75
2022/03/24 00:55:12;;;;;;;36.28;16.23;;;;;;;;;;4969794;28;20112;-74
2022/03/24 00:57:42;;;;;;;35.67;16.13;;;;;;;;;;4981068;28;20603;-75
2022/03/24 01:00:09;;;;;;;39.40;15.73;;;;;;;;;;4988088;28;20034;-74
2022/03/24 01:02:37;;;;;;;34.88;15.38;;;;;;;;;;5001526;28;20031;-75
2022/03/24 01:05:05;;;;;;;33.97;15.43;;;;;;;;;;4986433;28;20158;-74
2022/03/24 01:07:30;;;;;;;38.08;16.20;;;;;;;;;;4981715;28;20095;-74
2022/03/24 01:09:55;;;;;;;34.72;13.98;;;;;;;;;;4984431;28;20427;-74
2022/03/24 01:12:22;;;;;;;37.15;16.08;;;;;;;;;;4988775;28;20037;-74
2022/03/24 01:14:47;;;;;;;37.78;15.30;;;;;;;;;;4985688;28;20034;-75
2022/03/24 01:17:16;;;;;;;30.25;14.18;;;;;;;;;;4973071;28;20050;-75
2022/03/24 01:19:41;;;;;;;29.58;13.75;;;;;;;;;;4982390;28;20050;-74
2022/03/24 01:22:07;;;;;;;35.33;14.23;;;;;;;;;;5003649;28;20064;-75
2022/03/24 01:24:32;;;;;;;37.20;13.82;;;;;;;;;;4998462;28;20136;-74
2022/03/24 01:26:59;;;;;;;41.85;13.98;;;;;;;;;;5001996;28;20037;-74
2022/03/24 01:29:24;;;;;;;33.72;14.63;;;;;;;;;;5014695;28;20034;-74
2022/03/24 01:31:51;;;;;;;30.30;13.25;;;;;;;;;;4999894;28;20033;-74
2022/03/24 01:34:17;;;;;;;36.25;14.52;;;;;;;;;;5003930;28;20523;-75
2022/03/24 01:36:42;;;;;;;40.65;15.30;;;;;;;;;;4994127;28;20070;-74
2022/03/24 01:39:08;;;;;;;36.08;14.95;;;;;;;;;;4992079;28;20531;-74
2022/03/24 01:41:34;;;;;;;33.08;13.77;;;;;;;;;;5006324;28;20118;-74
2022/03/24 01:43:59;;;;;;;38.83;15.13;;;;;;;;;;4990014;28;20113;-74
2022/03/24 01:46:25;;;;;;;34.58;14.55;;;;;;;;;;5008195;28;20022;-75
2022/03/24 01:48:50;;;;;;;33.58;14.43;;;;;;;;;;4999480;28;20045;-75
2022/03/24 01:51:15;;;;;;;30.25;13.23;;;;;;;;;;5002962;28;20042;-74
2022/03/24 01:53:41;;;;;;;32.88;14.85;;;;;;;;;;4990444;28;20030;-74
2022/03/24 01:56:07;;;;;;;31.90;13.63;;;;;;;;;;4995794;28;20114;-74
2022/03/24 01:58:36;;;;;;;39.55;13.40;;;;;;;;;;5006209;28;20413;-75
2022/03/24 02:01:29;;;;;;;37.22;15.02;;;;;;;;;;5008056;28;20543;-74
2022/03/24 02:03:56;;;;;;;33.55;13.68;;;;;;;;;;4982665;28;20051;-74
2022/03/24 02:06:21;;;;;;;28.70;13.20;;;;;;;;;;4974006;28;20121;-75
2022/03/24 02:08:47;;;;;;;31.67;14.38;;;;;;;;;;5001427;28;20516;-75
2022/03/24 02:11:12;;;;;;;33.15;13.38;;;;;;;;;;4973648;28;20046;-75
2022/03/24 02:13:37;;;;;;;34.17;14.57;;;;;;;;;;4970989;28;20385;-73
2022/03/24 02:16:11;;;;;;;36.50;15.55;;;;;;;;;;4972058;28;20026;-74
2022/03/24 02:18:36;;;;;;;34.55;15.60;;;;;;;;;;4973534;28;20042;-75
2022/03/24 02:21:02;;;;;;;37.53;15.73;;;;;;;;;;4972852;28;20042;-74
2022/03/24 02:23:27;;;;;;;36.30;14.43;;;;;;;;;;4968452;28;20181;-74
2022/03/24 02:25:55;;;;;;;37.63;14.85;;;;;;;;;;4978281;28;20066;-74
2022/03/24 02:28:22;;;;;;;39.10;15.30;;;;;;;;;;4989373;28;20076;-74
2022/03/24 02:30:49;;;;;;;33.08;14.90;;;;;;;;;;4988830;28;20038;-74
2022/03/24 02:33:14;;;;;;;34.80;15.05;;;;;;;;;;5002159;28;20034;-74
2022/03/24 02:35:40;;;;;;;37.50;15.98;;;;;;;;;;5008271;28;20034;-75
2022/03/24 02:38:05;;;;;;;37.00;14.43;;;;;;;;;;4978870;28;20092;-74
2022/03/24 02:40:32;;;;;;;34.17;14.57;;;;;;;;;;4992348;28;20032;-74
2022/03/24 02:42:57;;;;;;;39.75;15.60;;;;;;;;;;5008343;28;20038;-74
2022/03/24 02:45:23;;;;;;;36.97;15.52;;;;;;;;;;5011214;28;20096;-75
2022/03/24 02:47:49;;;;;;;38.15;15.23;;;;;;;;;;5008326;28;20029;-75
2022/03/24 02:50:15;;;;;;;37.30;15.45;;;;;;;;;;5007095;28;20022;-75
2022/03/24 02:52:40;;;;;;;37.53;15.25;;;;;;;;;;4998904;28;20573;-74
2022/03/24 02:55:07;;;;;;;38.00;15.55;;;;;;;;;;4998818;28;20026;-74
2022/03/24 02:57:33;;;;;;;38.85;15.60;;;;;;;;;;5005544;28;20132;-75
2022/03/24 02:59:59;;;;;;;38.08;15.95;;;;;;;;;;4996937;28;20124;-75
2022/03/24 03:02:24;;;;;;;41.40;17.15;;;;;;;;;;5005500;28;20121;-74
2022/03/24 03:04:51;;;;;;;37.53;16.35;;;;;;;;;;4988866;28;20030;-74
2022/03/24 03:07:16;;;;;;;40.25;17.23;;;;;;;;;;4995182;28;20042;-74
2022/03/24 03:09:42;;;;;;;43.97;17.20;;;;;;;;;;5007329;28;20034;-75
2022/03/24 03:12:11;;;;;;;45.15;17.35;;;;;;;;;;4999324;28;20515;-75
2022/03/24 03:14:41;;;;;;;38.70;16.00;;;;;;;;;;4993775;28;20053;-76
2022/03/24 03:17:07;;;;;;;37.78;15.50;;;;;;;;;;5006548;28;20045;-74
2022/03/24 03:19:32;;;;;;;33.47;14.88;;;;;;;;;;5008580;28;20529;-75
2022/03/24 03:21:58;;;;;;;36.22;15.93;;;;;;;;;;4991654;28;20042;-75
2022/03/24 03:24:23;;;;;;;35.15;15.07;;;;;;;;;;4986808;28;20042;-75
2022/03/24 03:26:50;;;;;;;38.70;15.98;;;;;;;;;;4995777;28;20560;-74
2022/03/24 03:29:17;;;;;;;38.83;15.80;;;;;;;;;;5004886;28;20034;-74
2022/03/24 03:31:42;;;;;;;43.17;17.75;;;;;;;;;;4991581;28;20076;-74
2022/03/24 03:34:08;;;;;;;36.33;16.15;;;;;;;;;;5007922;28;20025;-74
2022/03/24 03:36:35;;;;;;;35.50;15.45;;;;;;;;;;5005474;28;20026;-74
2022/03/24 03:39:02;;;;;;;34.47;16.08;;;;;;;;;;4987961;28;20555;-74
2022/03/24 03:41:28;;;;;;;40.38;16.40;;;;;;;;;;4996573;28;20042;-74
2022/03/24 03:43:55;;;;;;;39.00;15.63;;;;;;;;;;5005498;28;20038;-74
2022/03/24 03:46:21;;;;;;;41.33;16.35;;;;;;;;;;4988531;28;20038;-75
2022/03/24 03:48:47;;;;;;;37.38;16.30;;;;;;;;;;5005980;28;20050;-75
2022/03/24 03:51:12;;;;;;;39.63;15.77;;;;;;;;;;5002784;28;20057;-74
2022/03/24 03:53:38;;;;;;;36.83;15.63;;;;;;;;;;4988150;28;20034;-75
2022/03/24 03:56:05;;;;;;;38.97;16.17;;;;;;;;;;4988116;28;20034;-74
2022/03/24 03:58:30;;;;;;;43.22;16.50;;;;;;;;;;5002505;28;20034;-74
2022/03/24 04:00:56;;;;;;;36.65;16.17;;;;;;;;;;4993817;28;20042;-74
2022/03/24 04:03:35;;;;;;;40.63;16.98;;;;;;;;;;4999035;28;20042;-74
2022/03/24 04:06:06;;;;;;;38.83;15.85;;;;;;;;;;5006951;28;20527;-74
2022/03/24 04:08:33;;;;;;;40.25;16.30;;;;;;;;;;5010021;28;20125;-75
2022/03/24 04:11:00;;;;;;;39.28;16.42;;;;;;;;;;5017631;28;20095;-74
2022/03/24 04:13:26;;;;;;;36.88;15.80;;;;;;;;;;5007150;28;20036;-75
2022/03/24 04:15:53;;;;;;;41.70;15.60;;;;;;;;;;5004311;28;20043;-74
2022/03/24 04:18:18;;;;;;;39.63;16.48;;;;;;;;;;5010988;28;20599;-74
2022/03/24 04:20:44;;;;;;;42.72;15.95;;;;;;;;;;4993762;28;20113;-75
2022/03/24 04:23:11;;;;;;;40.28;16.60;;;;;;;;;;4998156;28;20793;-74
2022/03/24 04:25:37;;;;;;;37.35;15.93;;;;;;;;;;5007762;28;20046;-76
2022/03/24 04:28:04;;;;;;;41.58;16.48;;;;;;;;;;5001630;28;20050;-74
2022/03/24 04:30:30;;;;;;;41.28;16.77;;;;;;;;;;5001529;28;20042;-75
2022/03/24 04:32:56;;;;;;;38.88;16.33;;;;;;;;;;4988118;28;20719;-74
2022/03/24 04:35:22;;;;;;;39.22;16.20;;;;;;;;;;4987718;28;20054;-75
2022/03/24 04:37:49;;;;;;;39.88;16.55;;;;;;;;;;4987481;28;20030;-74
2022/03/24 04:40:18;;;;;;;39.88;16.98;;;;;;;;;;5000768;28;20030;-75
2022/03/24 04:42:45;;;;;;;41.92;16.65;;;;;;;;;;4993159;28;20037;-75
2022/03/24 04:45:11;;;;;;;41.90;17.15;;;;;;;;;;5007022;28;20057;-75
2022/03/24 04:47:37;;;;;;;43.58;15.85;;;;;;;;;;5009237;28;20057;-75
2022/03/24 04:50:03;;;;;;;36.95;15.70;;;;;;;;;;5004575;28;20034;-75
2022/03/24 04:52:28;;;;;;;41.15;15.93;;;;;;;;;;4989585;28;20065;-74
2022/03/24 04:54:54;;;;;;;40.80;16.88;;;;;;;;;;5006875;28;20100;-74
2022/03/24 04:57:19;;;;;;;41.80;17.45;;;;;;;;;;5007435;28;20080;-74
2022/03/24 04:59:45;;;;;;;39.42;16.15;;;;;;;;;;5003120;28;20034;-74
2022/03/24 05:02:15;;;;;;;44.35;17.58;;;;;;;;;;5003111;28;20096;-75
2022/03/24 05:04:41;;;;;;;44.30;17.48;;;;;;;;;;5003285;28;20018;-74
2022/03/24 05:07:07;;;;;;;39.88;15.77;;;;;;;;;;5009955;28;20022;-75
2022/03/24 05:09:32;;;;;;;38.85;16.08;;;;;;;;;;5014813;28;20550;-75
2022/03/24 05:11:57;;;;;;;36.70;16.08;;;;;;;;;;5004434;28;20132;-75
2022/03/24 05:14:22;;;;;;;37.42;17.15;;;;;;;;;;5011228;28;20038;-75
2022/03/24 05:16:48;;;;;;;41.45;16.35;;;;;;;;;;4998163;28;20032;-75
2022/03/24 05:19:13;;;;;;;39.53;15.77;;;;;;;;;;4997015;28;20026;-74
2022/03/24 05:21:39;;;;;;;41.33;17.33;;;;;;;;;;5005874;28;20416;-75
2022/03/24 05:24:05;;;;;;;40.53;16.40;;;;;;;;;;4993040;28;20420;-74
2022/03/24 05:26:30;;;;;;;42.78;16.17;;;;;;;;;;5009576;28;20145;-75
2022/03/24 05:28:55;;;;;;;39.35;16.60;;;;;;;;;;5014564;28;20641;-75
2022/03/24 05:31:21;;;;;;;47.17;16.00;;;;;;;;;;5010269;28;20523;-75
2022/03/24 05:33:47;;;;;;;42.58;15.18;;;;;;;;;;4993184;28;20035;-74
2022/03/24 05:36:12;;;;;;;38.17;16.38;;;;;;;;;;5009594;28;20048;-75
2022/03/24 05:38:37;;;;;;;42.97;16.45;;;;;;;;;;4994209;28;20038;-74
2022/03/24 05:41:04;;;;;;;48.00;17.65;;;;;;;;;;5007174;28;20037;-74
2022/03/24 05:43:29;;;;;;;39.97;15.95;;;;;;;;;;5009943;28;20137;-75
2022/03/24 05:45:55;;;;;;;40.97;16.85;;;;;;;;;;5009177;28;20042;-75
2022/03/24 05:48:20;;;;;;;41.33;17.02;;;;;;;;;;5008517;28;20041;-75
2022/03/24 05:50:46;;;;;;;34.40;15.10;;;;;;;;;;5008731;28;20058;-74
2022/03/24 05:53:11;;;;;;;39.50;16.50;;;;;;;;;;5009271;28;20112;-74
2022/03/24 05:55:38;;;;;;;40.65;16.48;;;;;;;;;;5002966;28;20025;-74
2022/03/24 05:58:04;;;;;;;35.85;15.70;;;;;;;;;;4999387;28;20130;-75
2022/03/24 06:00:30;;;;;;;46.45;18.33;;;;;;;;;;4998914;28;20042;-74
2022/03/24 06:02:55;;;;;;;45.58;16.77;;;;;;;;;;5002526;28;20045;-75
2022/03/24 06:05:23;;;;;;;46.35;16.67;;;;;;;;;;5008227;28;20042;-75
2022/03/24 06:07:49;;;;;;;38.78;15.88;;;;;;;;;;5013625;28;20021;-74
2022/03/24 06:10:14;;;;;;;38.78;15.98;;;;;;;;;;5006666;28;20030;-74
2022/03/24 06:12:40;;;;;;;46.70;17.52;;;;;;;;;;4988040;28;20045;-74
2022/03/24 06:15:06;;;;;;;39.78;17.05;;;;;;;;;;5018293;28;20109;-74
2022/03/24 06:17:32;;;;;;;45.00;19.50;;;;;;;;;;4989550;28;20054;-75
2022/03/24 06:19:57;;;;;;;45.83;19.88;;;;;;;;;;4989810;28;20084;-75
2022/03/24 06:22:23;;;;;;;47.67;19.85;;;;;;;;;;4999162;28;20132;-74
2022/03/24 06:24:48;;;;;;;49.28;20.35;;;;;;;;;;4993056;28;20057;-74
2022/03/24 06:27:13;;;;;;;45.95;19.25;;;;;;;;;;4998249;28;20193;-74
2022/03/24 06:29:38;;;;;;;47.75;19.35;;;;;;;;;;5014697;28;20032;-75
2022/03/24 06:32:06;;;;;;;47.85;19.77;;;;;;;;;;5008458;28;20030;-74
2022/03/24 06:34:31;;;;;;;50.35;17.77;;;;;;;;;;5008317;28;20041;-75
2022/03/24 06:36:57;;;;;;;50.08;20.13;;;;;;;;;;4994363;28;20038;-74
2022/03/24 06:39:22;;;;;;;45.80;20.15;;;;;;;;;;4988592;28;20045;-75
2022/03/24 06:41:48;;;;;;;42.60;18.60;;;;;;;;;;5002005;28;20026;-74
2022/03/24 06:44:14;;;;;;;47.65;19.70;;;;;;;;;;4997479;28;20520;-74
2022/03/24 06:46:40;;;;;;;46.22;19.42;;;;;;;;;;4989471;28;20034;-75
2022/03/24 06:49:06;;;;;;;59.95;21.92;;;;;;;;;;4988744;28;20019;-74
2022/03/24 06:51:33;;;;;;;49.70;19.23;;;;;;;;;;4996968;28;20038;-75
2022/03/24 06:53:58;;;;;;;58.05;20.67;;;;;;;;;;4996590;28;20034;-74
2022/03/24 06:56:24;;;;;;;49.65;18.52;;;;;;;;;;4994649;28;20061;-74
2022/03/24 06:58:50;;;;;;;51.53;19.42;;;;;;;;;;4992755;28;20084;-74
2022/03/24 07:01:16;;;;;;;42.50;18.50;;;;;;;;;;5004402;28;20053;-74
2022/03/24 07:03:41;;;;;;;50.00;19.23;;;;;;;;;;4995720;28;20045;-76
2022/03/24 07:06:07;;;;;;;51.33;19.80;;;;;;;;;;5006119;28;20081;-74
2022/03/24 07:08:32;;;;;;;51.80;20.05;;;;;;;;;;5006143;28;20363;-74
2022/03/24 07:10:58;;;;;;;53.58;21.42;;;;;;;;;;5006088;28;20096;-74
2022/03/24 07:13:24;;;;;;;54.42;21.42;;;;;;;;;;5007688;28;20025;-75
2022/03/24 07:15:49;;;;;;;58.65;21.75;;;;;;;;;;5025542;28;20083;-74
2022/03/24 07:18:15;;;;;;;56.05;22.42;;;;;;;;;;5004139;28;20042;-74
2022/03/24 07:20:41;;;;;;;61.10;23.70;;;;;;;;;;4998293;28;20034;-75
2022/03/24 07:23:07;;;;;;;53.17;21.35;;;;;;;;;;4990440;28;20034;-74
2022/03/24 07:25:33;;;;;;;57.35;23.67;;;;;;;;;;4986970;28;20045;-74
2022/03/24 07:27:59;;;;;;;71.07;25.02;;;;;;;;;;4993391;28;20419;-72
2022/03/24 07:30:25;;;;;;;57.92;21.38;;;;;;;;;;4989348;28;20144;-71
2022/03/24 07:32:53;;;;;;;58.92;22.58;;;;;;;;;;4994262;28;20671;-71
2022/03/24 07:35:19;;;;;;;56.63;22.08;;;;;;;;;;4993512;28;20038;-72
2022/03/24 07:37:46;;;;;;;65.70;22.77;;;;;;;;;;5003126;28;20064;-73
2022/03/24 07:40:14;;;;;;;63.47;23.30;;;;;;;;;;5005037;28;20026;-74
2022/03/24 07:42:39;;;;;;;60.45;22.95;;;;;;;;;;5002160;28;20411;-74
2022/03/24 07:45:06;;;;;;;68.80;25.23;;;;;;;;;;5010389;28;20680;-71
2022/03/24 07:47:31;;;;;;;61.10;24.30;;;;;;;;;;4995277;28;20053;-70
2022/03/24 07:49:57;;;;;;;69.68;24.00;;;;;;;;;;5013449;28;20042;-70
2022/03/24 07:52:25;;;;;;;67.63;25.67;;;;;;;;;;5001959;28;20033;-73
2022/03/24 07:54:55;;;;;;;68.97;24.35;;;;;;;;;;5001950;28;20034;-70
2022/03/24 07:57:21;;;;;;;63.65;25.10;;;;;;;;;;4991719;28;20152;-74
2022/03/24 07:59:46;;;;;;;70.47;24.67;;;;;;;;;;5002482;28;20030;-73
2022/03/24 08:02:12;;;;;;;55.95;22.67;;;;;;;;;;4999964;28;20045;-72
2022/03/24 08:04:37;;;;;;;54.30;22.95;;;;;;;;;;5003829;28;20026;-72
2022/03/24 08:07:03;;;;;;;59.90;21.73;;;;;;;;;;5003314;28;20026;-73
2022/03/24 08:09:31;;;;;;;61.45;23.75;;;;;;;;;;4997614;28;20034;-75
2022/03/24 08:11:56;;;;;;;64.88;24.27;;;;;;;;;;4998025;28;20058;-74
2022/03/24 08:14:21;;;;;;;68.75;24.90;;;;;;;;;;5000505;28;20068;-74
2022/03/24 08:16:47;;;;;;;63.42;24.40;;;;;;;;;;4996857;28;20083;-72
2022/03/24 08:19:14;;;;;;;61.30;23.90;;;;;;;;;;4999367;28;20044;-72
2022/03/24 08:21:40;;;;;;;63.70;23.42;;;;;;;;;;4966406;28;20595;-77
2022/03/24 08:24:05;;;;;;;59.40;23.25;;;;;;;;;;4971484;28;20035;-72
2022/03/24 08:26:30;;;;;;;57.72;22.38;;;;;;;;;;4967625;28;20084;-75
2022/03/24 08:28:57;;;;;;;61.42;22.92;;;;;;;;;;4984095;28;20026;-74
2022/03/24 08:31:24;;;;;;;55.67;21.95;;;;;;;;;;5004660;28;20028;-74
2022/03/24 08:33:49;;;;;;;58.35;21.70;;;;;;;;;;4988456;28;20038;-75
2022/03/24 08:36:14;;;;;;;64.38;24.88;;;;;;;;;;4985213;28;20034;-75
2022/03/24 08:38:40;;;;;;;67.07;25.42;;;;;;;;;;4985193;28;21683;-75
2022/03/24 08:41:05;;;;;;;59.42;24.30;;;;;;;;;;4967660;28;20182;-73
2022/03/24 08:43:30;;;;;;;67.13;24.45;;;;;;;;;;4972321;28;20081;-75
2022/03/24 08:45:56;;;;;;;65.88;26.67;;;;;;;;;;4986534;28;20041;-74
2022/03/24 08:48:21;;;;;;;63.00;24.88;;;;;;;;;;4986548;28;20039;-76
2022/03/24 08:50:47;;;;;;;68.40;25.30;;;;;;;;;;4986584;28;20026;-73
2022/03/24 08:53:12;;;;;;;76.18;27.15;;;;;;;;;;4986874;28;20026;-73
2022/03/24 08:55:38;;;;;;;64.40;26.00;;;;;;;;;;4971273;28;20038;-72
2022/03/24 08:58:04;;;;;;;66.22;24.80;;;;;;;;;;4966594;28;20081;-74
2022/03/24 09:00:30;;;;;;;63.30;24.88;;;;;;;;;;4986001;28;20509;-74
2022/03/24 09:02:56;;;;;;;62.88;25.55;;;;;;;;;;4997876;28;20683;-75
2022/03/24 09:05:21;;;;;;;59.85;23.88;;;;;;;;;;4986703;28;20534;-70
2022/03/24 09:07:47;;;;;;;58.20;23.27;;;;;;;;;;5006222;28;20423;-70
2022/03/24 09:10:14;;;;;;;60.63;24.65;;;;;;;;;;4992312;28;20092;-70
2022/03/24 09:12:44;;;;;;;65.57;25.58;;;;;;;;;;4987757;28;20069;-72
2022/03/24 09:15:10;;;;;;;62.22;24.20;;;;;;;;;;5007180;28;20076;-71
2022/03/24 09:17:37;;;;;;;68.60;25.60;;;;;;;;;;4989807;28;20042;-73
2022/03/24 09:20:13;;;;;;;56.15;23.23;;;;;;;;;;4989607;28;20069;-70
2022/03/24 09:22:40;;;;;;;66.63;24.33;;;;;;;;;;4999091;28;20037;-71
2022/03/24 09:25:07;;;;;;;62.10;23.75;;;;;;;;;;5006922;28;20511;-70
2022/03/24 09:27:33;;;;;;;59.53;23.40;;;;;;;;;;5000102;28;20041;-69
2022/03/24 09:29:58;;;;;;;63.75;23.98;;;;;;;;;;4992477;28;20035;-70
2022/03/24 09:32:24;;;;;;;55.38;23.83;;;;;;;;;;4999667;28;20897;-69
2022/03/24 09:34:49;;;;;;;61.22;23.50;;;;;;;;;;5005084;28;20034;-69
2022/03/24 09:37:17;;;;;;;60.17;22.67;;;;;;;;;;4999405;28;20602;-70
2022/03/24 09:39:44;;;;;;;62.28;24.05;;;;;;;;;;4991265;28;20042;-71
2022/03/24 09:42:10;;;;;;;56.58;23.40;;;;;;;;;;4979448;28;20490;-71
2022/03/24 09:44:35;;;;;;;57.88;23.77;;;;;;;;;;4993695;28;20041;-74
2022/03/24 09:47:00;;;;;;;61.42;24.27;;;;;;;;;;4996403;28;20717;-70
2022/03/24 09:49:27;;;;;;;56.70;23.38;;;;;;;;;;4992156;28;20054;-72
2022/03/24 09:51:52;;;;;;;61.58;23.30;;;;;;;;;;5002337;28;20575;-70
2022/03/24 09:54:18;;;;;;;63.28;22.83;;;;;;;;;;4987302;28;20121;-72
2022/03/24 09:56:43;;;;;;;60.17;25.40;;;;;;;;;;4989857;28;20088;-71
2022/03/24 09:59:09;;;;;;;59.25;23.85;;;;;;;;;;4988678;28;20040;-71
2022/03/24 10:01:36;;;;;;;64.82;25.05;;;;;;;;;;5004342;28;20061;-66
2022/03/24 10:04:10;;;;;;;61.85;24.73;;;;;;;;;;4986054;28;20574;-72
2022/03/24 10:06:39;;;;;;;63.15;23.20;;;;;;;;;;4986497;28;20428;-72
2022/03/24 10:09:04;;;;;;;55.30;22.85;;;;;;;;;;4999613;28;20052;-71
2022/03/24 10:11:30;;;;;;;66.05;26.88;;;;;;;;;;4987738;28;20038;-72
2022/03/24 10:13:58;;;;;;;57.05;24.10;;;;;;;;;;4992201;28;20046;-72
2022/03/24 10:16:32;;;;;;;64.10;25.90;;;;;;;;;;4986287;28;20042;-72
2022/03/24 10:19:03;;;;;;;58.03;23.10;;;;;;;;;;4987416;28;20136;-72
2022/03/24 10:21:29;;;;;;;64.80;25.90;;;;;;;;;;5005789;28;20056;-71
2022/03/24 10:24:00;;;;;;;55.88;23.38;;;;;;;;;;4987752;28;20042;-71
2022/03/24 10:26:42;;;;;;;56.08;22.83;;;;;;;;;;4988227;28;20497;-71
2022/03/24 10:29:12;;;;;;;52.88;22.63;;;;;;;;;;5006994;28;20106;-72
2022/03/24 10:31:38;;;;;;;52.15;22.55;;;;;;;;;;5005505;28;20129;-72
2022/03/24 10:34:06;;;;;;;54.38;22.10;;;;;;;;;;5000094;28;20041;-71
2022/03/24 10:36:32;;;;;;;57.38;22.60;;;;;;;;;;5006952;28;20046;-72
2022/03/24 10:39:04;;;;;;;54.72;22.13;;;;;;;;;;5006797;28;20438;-71
2022/03/24 10:41:31;;;;;;;56.33;23.95;;;;;;;;;;5002512;28;20025;-71
2022/03/24 10:44:04;;;;;;;55.00;23.48;;;;;;;;;;4997202;28;20108;-71
2022/03/24 10:46:33;;;;;;;54.15;22.73;;;;;;;;;;5004474;28;20107;-72
2022/03/24 10:49:13;;;;;;;49.25;20.70;;;;;;;;;;4997770;28;20042;-72
2022/03/24 10:51:42;;;;;;;51.20;22.55;;;;;;;;;;5001766;28;20034;-72
2022/03/24 10:54:28;;;;;;;49.10;21.67;;;;;;;;;;5001987;28;20048;-71
2022/03/24 10:57:03;;;;;;;55.00;22.27;;;;;;;;;;5000491;28;20113;-71
2022/03/24 10:59:31;;;;;;;44.80;20.52;;;;;;;;;;5002573;28;20029;-72
2022/03/24 11:01:57;;;;;;;45.83;20.35;;;;;;;;;;5004900;28;20520;-76
2022/03/24 11:04:23;;;;;;;43.03;19.30;;;;;;;;;;5003502;28;20042;-74
2022/03/24 11:06:52;;;;;;;41.72;18.13;;;;;;;;;;5001988;28;20037;-75
2022/03/24 11:09:27;;;;;;;45.97;20.58;;;;;;;;;;5002993;28;20029;-74
2022/03/24 11:12:36;;;;;;;47.78;20.40;;;;;;;;;;4991821;28;20079;-75
2022/03/24 11:15:03;;;;;;;40.35;18.90;;;;;;;;;;5004297;28;20065;-75
2022/03/24 11:17:31;;;;;;;40.00;17.83;;;;;;;;;;4989616;28;20045;-75
2022/03/24 11:20:15;;;;;;;36.88;15.88;;;;;;;;;;5001915;28;20044;-74
2022/03/24 11:22:51;;;;;;;40.50;17.98;;;;;;;;;;5003951;28;20042;-74
2022/03/24 11:25:18;;;;;;;41.33;15.82;;;;;;;;;;5000992;28;20135;-75
2022/03/24 11:27:44;;;;;;;34.65;16.10;;;;;;;;;;4999815;28;20045;-73
2022/03/24 11:30:11;;;;;;;38.33;15.35;;;;;;;;;;4992892;28;20166;-72
2022/03/24 11:32:40;;;;;;;34.15;15.90;;;;;;;;;;4992815;28;20030;-75
2022/03/24 11:35:06;;;;;;;33.58;15.65;;;;;;;;;;5001407;28;20076;-76
2022/03/24 11:37:32;;;;;;;39.75;17.38;;;;;;;;;;5005641;28;20037;-75
2022/03/24 11:40:06;;;;;;;32.05;16.23;;;;;;;;;;5004577;28;20040;-73
2022/03/24 11:42:34;;;;;;;29.55;14.90;;;;;;;;;;5016668;28;20128;-72
2022/03/24 11:45:12;;;;;;;32.65;16.10;;;;;;;;;;5017853;28;20038;-75
2022/03/24 11:47:52;;;;;;;35.53;17.40;;;;;;;;;;4984429;28;20487;-76
2022/03/24 11:50:18;;;;;;;38.00;17.17;;;;;;;;;;5002168;28;20146;-73
2022/03/24 11:52:44;;;;;;;37.80;18.05;;;;;;;;;;5004562;28;20125;-75
2022/03/24 11:55:14;;;;;;;41.17;19.42;;;;;;;;;;5005435;28;20568;-80
2022/03/24 11:57:39;;;;;;;34.85;16.30;;;;;;;;;;5007290;28;20030;-74
2022/03/24 12:00:14;;;;;;;30.75;15.48;;;;;;;;;;5009183;28;20049;-68
2022/03/24 12:02:41;;;;;;;38.78;16.40;;;;;;;;;;5008226;28;20046;-70
2022/03/24 12:05:06;;;;;;;34.78;15.43;;;;;;;;;;5009517;28;20022;-71
2022/03/24 12:07:32;;;;;;;36.38;16.40;;;;;;;;;;5020833;28;20482;-70
2022/03/24 12:10:02;;;;;;;37.88;16.27;;;;;;;;;;5008073;28;20040;-71
2022/03/24 12:12:29;;;;;;;39.45;19.35;;;;;;;;;;5009306;28;20053;-71
2022/03/24 12:14:54;;;;;;;37.05;17.45;;;;;;;;;;5007405;28;20054;-71
2022/03/24 12:17:31;;;;;;;36.30;16.80;;;;;;;;;;5009039;28;20062;-71
2022/03/24 12:19:58;;;;;;;33.50;15.88;;;;;;;;;;5007138;28;20125;-73
2022/03/24 12:22:28;;;;;;;33.38;14.80;;;;;;;;;;5008703;28;20034;-71
2022/03/24 12:25:00;;;;;;;28.95;15.00;;;;;;;;;;5014432;28;20045;-74
2022/03/24 12:27:54;;;;;;;30.15;14.82;;;;;;;;;;5010516;28;20045;-74
2022/03/24 12:30:19;;;;;;;27.27;14.63;;;;;;;;;;5006689;28;20034;-74
2022/03/24 12:33:40;;;;;;;30.67;14.38;;;;;;;;;;5006110;28;20029;-74
2022/03/24 12:36:06;;;;;;;34.90;15.43;;;;;;;;;;4974498;28;20043;-74
2022/03/24 12:38:37;;;;;;;38.30;16.25;;;;;;;;;;4967204;28;20178;-74
2022/03/24 12:41:03;;;;;;;33.45;16.60;;;;;;;;;;4991527;28;20515;-74
2022/03/24 12:43:29;;;;;;;34.50;15.82;;;;;;;;;;5004210;28;20053;-75
2022/03/24 12:46:20;;;;;;;34.83;16.02;;;;;;;;;;5002746;28;20057;-74
2022/03/24 12:48:46;;;;;;;36.13;16.55;;;;;;;;;;5022860;28;20191;-74
2022/03/24 12:51:23;;;;;;;40.70;17.67;;;;;;;;;;5007413;28;20568;-74
2022/03/24 12:53:55;;;;;;;45.10;18.85;;;;;;;;;;5007410;28;20064;-72
2022/03/24 12:56:30;;;;;;;36.17;16.80;;;;;;;;;;5006948;28;20567;-72
2022/03/24 12:59:01;;;;;;;37.78;17.42;;;;;;;;;;5005430;28;20531;-72
2022/03/24 13:01:26;;;;;;;37.38;16.13;;;;;;;;;;5006493;28;20058;-72
2022/03/24 13:04:01;;;;;;;34.42;16.13;;;;;;;;;;5001598;28;20467;-72
2022/03/24 13:06:27;;;;;;;38.03;16.15;;;;;;;;;;5011840;28;20042;-72
2022/03/24 13:09:16;;;;;;;32.42;15.13;;;;;;;;;;5006344;28;20120;-72
2022/03/24 13:11:48;;;;;;;45.63;19.02;;;;;;;;;;5007554;28;20021;-72
2022/03/24 13:14:14;;;;;;;44.70;19.58;;;;;;;;;;5008737;28;20033;-73
2022/03/24 13:16:39;;;;;;;41.30;18.63;;;;;;;;;;5006247;28;20050;-73
2022/03/24 13:19:04;;;;;;;42.55;19.30;;;;;;;;;;5022544;28;20041;-74
2022/03/24 13:21:30;;;;;;;41.80;17.90;;;;;;;;;;5007884;28;20129;-71
2022/03/24 13:23:55;;;;;;;44.10;19.02;;;;;;;;;;4988169;28;20412;-71
2022/03/24 13:26:21;;;;;;;41.47;17.95;;;;;;;;;;5001189;28;20026;-72
2022/03/24 13:28:55;;;;;;;45.53;21.85;;;;;;;;;;4997544;28;20037;-73
2022/03/24 13:31:28;;;;;;;42.97;19.80;;;;;;;;;;5000653;28;20042;-77
2022/03/24 13:33:54;;;;;;;41.13;19.60;;;;;;;;;;5006257;28;20072;-70
2022/03/24 13:36:19;;;;;;;45.72;18.95;;;;;;;;;;5003304;28;20113;-70
2022/03/24 13:38:44;;;;;;;37.97;16.55;;;;;;;;;;5005469;28;20048;-70
2022/03/24 13:41:10;;;;;;;43.28;18.52;;;;;;;;;;5006529;28;20789;-70
2022/03/24 13:43:35;;;;;;;44.95;19.83;;;;;;;;;;5014379;28;20046;-71
2022/03/24 13:46:01;;;;;;;39.90;17.88;;;;;;;;;;4995101;28;20047;-70
2022/03/24 13:48:27;;;;;;;44.08;17.75;;;;;;;;;;4985841;28;20846;-70
2022/03/24 13:51:13;;;;;;;39.92;18.73;;;;;;;;;;4981201;28;20030;-75
2022/03/24 13:53:38;;;;;;;37.10;17.08;;;;;;;;;;4971794;28;20530;-73
2022/03/24 13:56:08;;;;;;;37.15;17.63;;;;;;;;;;4985530;28;20042;-75
2022/03/24 13:58:35;;;;;;;48.95;18.40;;;;;;;;;;4986749;28;20053;-74
2022/03/24 14:01:03;;;;;;;38.55;16.77;;;;;;;;;;4995578;28;20790;-74
2022/03/24 14:03:28;;;;;;;36.28;17.00;;;;;;;;;;4991726;28;20042;-74
2022/03/24 14:06:00;;;;;;;35.78;15.52;;;;;;;;;;5006345;28;20542;-75
2022/03/24 14:08:31;;;;;;;37.22;17.23;;;;;;;;;;4988718;28;20042;-73
2022/03/24 14:10:59;;;;;;;31.08;17.15;;;;;;;;;;4998940;28;20504;-73
2022/03/24 14:13:27;;;;;;;36.67;17.25;;;;;;;;;;4990288;28;20050;-75
2022/03/24 14:16:06;;;;;;;37.78;17.42;;;;;;;;;;5005356;28;20133;-75
2022/03/24 14:18:31;;;;;;;34.53;16.63;;;;;;;;;;5004244;28;20542;-76